Time;durP1;ratioP1;P1;durP2;ratioP2;P2;SDS_P1;SDS_P2;PMS_P1;PMS_P2;Temp;Humidity;BMP_temperature;BMP_pressure;BME280_temperature;BME280_humidity;BME280_pressure;Samples;Min_cycle;Max_cycle;Signal;HPM_P1;HPM_P2
2021/09/12 00:02:22;;;;;;;;;;;23.80;59.70;;;;;;4990769;28;19925;-66
2021/09/12 00:04:49;;;;;;;;;;;23.80;59.60;;;;;;4990577;28;20374;-67
2021/09/12 00:07:17;;;;;;;;;;;23.80;59.60;;;;;;4991933;28;20393;-66
2021/09/12 00:09:44;;;;;;;;;;;23.80;59.60;;;;;;4990774;28;20319;-66
2021/09/12 00:12:11;;;;;;;;;;;23.80;59.60;;;;;;4991545;28;19932;-66
2021/09/12 00:14:38;;;;;;;;;;;23.80;59.70;;;;;;4990860;28;19932;-66
2021/09/12 00:17:06;;;;;;;;;;;23.80;59.60;;;;;;4991661;28;20362;-66
2021/09/12 00:19:33;;;;;;;;;;;23.80;59.60;;;;;;4991523;28;19932;-67
2021/09/12 00:22:00;;;;;;;;;;;23.80;59.60;;;;;;4991350;28;19932;-66
2021/09/12 00:24:27;;;;;;;;;;;23.80;59.60;;;;;;4990715;28;19926;-66
2021/09/12 00:26:54;;;;;;;;;;;23.80;59.70;;;;;;4991466;28;19991;-66
2021/09/12 00:29:22;;;;;;;;;;;23.70;59.60;;;;;;4974241;28;19925;-66
2021/09/12 00:31:49;;;;;;;;;;;23.70;59.60;;;;;;4991678;28;19926;-66
2021/09/12 00:34:17;;;;;;;;;;;23.80;59.70;;;;;;4991124;28;19925;-66
2021/09/12 00:36:44;;;;;;;;;;;23.80;59.70;;;;;;4991152;28;19941;-66
2021/09/12 00:39:11;;;;;;;;;;;23.80;59.70;;;;;;4990407;28;19976;-67
2021/09/12 00:41:40;;;;;;;;;;;23.80;59.70;;;;;;4989969;28;20389;-66
2021/09/12 00:44:10;;;;;;;;;;;23.80;59.70;;;;;;4991414;28;19926;-66
2021/09/12 00:46:38;;;;;;;;;;;23.80;59.70;;;;;;4990268;28;19948;-66
2021/09/12 00:49:05;;;;;;;;;;;23.80;59.60;;;;;;4990230;28;19930;-66
2021/09/12 00:51:33;;;;;;;;;;;23.80;59.70;;;;;;4994360;28;19926;-66
2021/09/12 00:54:03;;;;;;;;;;;23.80;59.60;;;;;;4991428;28;19962;-66
2021/09/12 00:56:30;;;;;;;;;;;23.70;59.60;;;;;;4988807;28;19932;-66
2021/09/12 00:58:59;;;;;;;;;;;23.80;59.70;;;;;;4989884;28;19932;-66
2021/09/12 01:01:26;;;;;;;;;;;23.80;59.70;;;;;;4990073;28;19937;-66
2021/09/12 01:03:53;;;;;;;;;;;23.80;59.70;;;;;;4990939;28;19976;-66
2021/09/12 01:06:21;;;;;;;;;;;23.80;59.70;;;;;;4989532;28;20008;-67
2021/09/12 01:08:48;;;;;;;;;;;23.80;59.70;;;;;;4989694;28;19925;-66
2021/09/12 01:11:15;;;;;;;;;;;23.80;59.70;;;;;;4990893;28;19929;-65
2021/09/12 01:13:42;;;;;;;;;;;23.80;59.70;;;;;;4991076;28;19941;-66
2021/09/12 01:16:11;;;;;;;;;;;23.80;59.70;;;;;;4990036;28;20360;-66
2021/09/12 01:18:39;;;;;;;;;;;23.70;59.60;;;;;;4989500;28;19929;-66
2021/09/12 01:21:14;;;;;;;;;;;23.70;59.60;;;;;;4990615;28;19926;-67
2021/09/12 01:23:42;;;;;;;;;;;23.70;59.70;;;;;;4990880;28;19926;-66
2021/09/12 01:26:09;;;;;;;;;;;23.70;59.70;;;;;;4990650;28;19925;-66
2021/09/12 01:28:39;;;;;;;;;;;23.70;59.60;;;;;;4973141;28;19937;-66
2021/09/12 01:31:07;;;;;;;;;;;23.80;60.30;;;;;;4990743;28;19926;-66
2021/09/12 01:33:34;;;;;;;;;;;23.70;59.60;;;;;;4990411;28;19925;-66
2021/09/12 01:36:01;;;;;;;;;;;23.80;59.70;;;;;;4989372;28;19933;-65
2021/09/12 01:38:28;;;;;;;;;;;23.80;59.70;;;;;;4990325;28;19934;-66
2021/09/12 01:40:55;;;;;;;;;;;23.80;59.70;;;;;;4989308;28;19930;-66
2021/09/12 01:43:22;;;;;;;;;;;23.80;59.70;;;;;;4990216;28;19933;-66
2021/09/12 01:45:50;;;;;;;;;;;23.80;59.70;;;;;;4990178;28;19926;-67
2021/09/12 01:48:19;;;;;;;;;;;23.80;59.70;;;;;;4990329;28;20337;-66
2021/09/12 01:50:46;;;;;;;;;;;23.80;59.70;;;;;;4990050;28;19945;-66
2021/09/12 01:53:13;;;;;;;;;;;23.70;59.70;;;;;;5061932;28;19924;-66
2021/09/12 01:55:40;;;;;;;;;;;23.80;59.70;;;;;;4989233;28;20018;-67
2021/09/12 01:58:07;;;;;;;;;;;23.80;59.70;;;;;;4973949;28;19933;-66
2021/09/12 02:00:34;;;;;;;;;;;23.70;59.60;;;;;;4992532;28;20452;-66
2021/09/12 02:03:01;;;;;;;;;;;23.80;59.70;;;;;;4993474;28;19969;-65
2021/09/12 02:05:28;;;;;;;;;;;23.80;59.70;;;;;;4993440;28;19926;-66
2021/09/12 02:07:55;;;;;;;;;;;23.80;59.70;;;;;;4993557;28;19969;-66
2021/09/12 02:10:26;;;;;;;;;;;23.80;59.70;;;;;;4993847;28;19926;-66
2021/09/12 02:12:53;;;;;;;;;;;23.80;59.70;;;;;;4992689;28;20331;-66
2021/09/12 02:15:20;;;;;;;;;;;23.80;59.80;;;;;;4992202;28;19948;-66
2021/09/12 02:17:47;;;;;;;;;;;23.80;59.70;;;;;;4975075;28;19979;-66
2021/09/12 02:20:14;;;;;;;;;;;23.80;59.80;;;;;;4993220;28;20381;-67
2021/09/12 02:22:41;;;;;;;;;;;23.70;59.60;;;;;;4992123;28;20017;-67
2021/09/12 02:25:08;;;;;;;;;;;23.70;59.70;;;;;;4993321;28;19933;-66
2021/09/12 02:27:35;;;;;;;;;;;23.80;59.70;;;;;;4993248;28;19987;-67
2021/09/12 02:30:03;;;;;;;;;;;23.70;59.60;;;;;;4991956;28;19976;-67
2021/09/12 02:32:31;;;;;;;;;;;23.80;59.70;;;;;;4992166;28;20004;-67
2021/09/12 02:34:58;;;;;;;;;;;23.80;59.80;;;;;;4992131;28;19926;-67
2021/09/12 02:37:25;;;;;;;;;;;23.70;59.70;;;;;;4991925;28;20008;-67
2021/09/12 02:39:52;;;;;;;;;;;23.70;59.70;;;;;;4992966;28;20366;-66
2021/09/12 02:42:19;;;;;;;;;;;23.80;59.80;;;;;;4992072;28;19926;-67
2021/09/12 02:44:46;;;;;;;;;;;23.70;59.70;;;;;;4975243;28;19983;-66
2021/09/12 02:47:13;;;;;;;;;;;23.70;59.70;;;;;;4993317;28;19965;-66
2021/09/12 02:49:40;;;;;;;;;;;23.80;59.80;;;;;;4993105;28;19983;-67
2021/09/12 02:52:07;;;;;;;;;;;23.80;59.80;;;;;;5023008;28;20018;-67
2021/09/12 02:54:34;;;;;;;;;;;23.80;59.80;;;;;;4992210;28;19925;-67
2021/09/12 02:57:01;;;;;;;;;;;23.80;59.80;;;;;;4991877;28;19926;-67
2021/09/12 02:59:28;;;;;;;;;;;23.80;59.80;;;;;;4992806;28;20316;-67
2021/09/12 03:01:55;;;;;;;;;;;23.70;59.70;;;;;;4991832;28;19999;-66
2021/09/12 03:04:24;;;;;;;;;;;23.70;59.70;;;;;;4991582;28;19926;-66
2021/09/12 03:06:51;;;;;;;;;;;23.80;59.80;;;;;;4992463;28;20351;-67
2021/09/12 03:09:18;;;;;;;;;;;23.80;59.80;;;;;;4991536;28;19933;-67
2021/09/12 03:11:45;;;;;;;;;;;23.80;59.80;;;;;;4992955;28;19952;-66
2021/09/12 03:14:13;;;;;;;;;;;23.80;60.40;;;;;;4991440;28;19973;-67
2021/09/12 03:16:39;;;;;;;;;;;23.80;59.80;;;;;;4992629;28;19933;-67
2021/09/12 03:19:06;;;;;;;;;;;23.70;59.70;;;;;;4992497;28;20017;-66
2021/09/12 03:21:33;;;;;;;;;;;23.70;59.70;;;;;;4992272;28;19969;-67
2021/09/12 03:24:00;;;;;;;;;;;23.80;59.80;;;;;;4992647;28;19979;-66
2021/09/12 03:26:27;;;;;;;;;;;23.80;59.80;;;;;;4992246;28;19926;-68
2021/09/12 03:28:54;;;;;;;;;;;23.70;59.70;;;;;;4991556;28;19975;-66
2021/09/12 03:31:21;;;;;;;;;;;23.70;59.70;;;;;;4992504;28;20035;-66
2021/09/12 03:33:49;;;;;;;;;;;23.70;59.70;;;;;;4992541;28;20327;-66
2021/09/12 03:36:16;;;;;;;;;;;23.70;59.70;;;;;;4991810;28;19941;-66
2021/09/12 03:38:43;;;;;;;;;;;23.80;59.80;;;;;;4992353;28;19926;-68
2021/09/12 03:41:10;;;;;;;;;;;23.70;59.70;;;;;;4991298;28;19926;-67
2021/09/12 03:43:37;;;;;;;;;;;23.80;59.80;;;;;;4991590;28;19934;-67
2021/09/12 03:46:04;;;;;;;;;;;23.70;59.70;;;;;;4991340;28;19976;-67
2021/09/12 03:48:31;;;;;;;;;;;23.70;59.70;;;;;;4991223;28;19937;-66
2021/09/12 03:50:58;;;;;;;;;;;23.70;59.70;;;;;;4992167;28;20323;-66
2021/09/12 03:53:25;;;;;;;;;;;23.70;59.70;;;;;;4994548;28;19988;-67
2021/09/12 03:55:52;;;;;;;;;;;23.70;59.70;;;;;;4990691;28;20332;-66
2021/09/12 03:58:19;;;;;;;;;;;23.70;59.80;;;;;;4991911;28;20012;-66
2021/09/12 04:00:46;;;;;;;;;;;23.70;59.80;;;;;;4991819;28;20393;-67
2021/09/12 04:03:14;;;;;;;;;;;23.70;59.80;;;;;;4990958;28;19930;-66
2021/09/12 04:05:41;;;;;;;;;;;23.70;59.80;;;;;;4991846;28;19991;-66
2021/09/12 04:08:08;;;;;;;;;;;23.80;59.80;;;;;;4991856;28;19932;-66
2021/09/12 04:10:35;;;;;;;;;;;23.70;59.80;;;;;;4990800;28;19962;-66
2021/09/12 04:13:02;;;;;;;;;;;23.70;59.70;;;;;;4991794;28;19932;-67
2021/09/12 04:15:29;;;;;;;;;;;23.70;59.80;;;;;;4990543;28;19926;-66
2021/09/12 04:17:56;;;;;;;;;;;23.70;59.80;;;;;;4991679;28;19961;-66
2021/09/12 04:20:23;;;;;;;;;;;23.70;59.80;;;;;;4989804;28;19933;-66
2021/09/12 04:22:50;;;;;;;;;;;23.70;59.80;;;;;;4991549;28;19973;-67
2021/09/12 04:25:18;;;;;;;;;;;23.70;59.80;;;;;;4990327;28;19934;-67
2021/09/12 04:27:45;;;;;;;;;;;23.70;59.80;;;;;;4990460;28;19959;-66
2021/09/12 04:30:14;;;;;;;;;;;23.70;59.80;;;;;;4991425;28;19926;-66
2021/09/12 04:32:42;;;;;;;;;;;23.70;59.80;;;;;;4991580;28;20263;-67
2021/09/12 04:35:10;;;;;;;;;;;23.70;59.80;;;;;;4991616;28;19926;-66
2021/09/12 04:37:37;;;;;;;;;;;23.70;59.70;;;;;;4991274;28;20590;-66
2021/09/12 04:40:05;;;;;;;;;;;23.70;59.80;;;;;;4991431;28;19955;-66
2021/09/12 04:42:32;;;;;;;;;;;23.80;59.80;;;;;;4990202;28;19979;-68
2021/09/12 04:44:59;;;;;;;;;;;23.80;59.80;;;;;;4990604;28;20043;-67
2021/09/12 04:47:26;;;;;;;;;;;23.80;59.80;;;;;;4991095;28;19958;-67
2021/09/12 04:49:53;;;;;;;;;;;23.70;59.80;;;;;;4991264;28;19926;-66
2021/09/12 04:52:20;;;;;;;;;;;23.70;59.80;;;;;;5029872;28;19974;-66
2021/09/12 04:54:47;;;;;;;;;;;23.70;59.80;;;;;;4985569;28;19936;-66
2021/09/12 04:57:14;;;;;;;;;;;23.80;59.80;;;;;;4986877;28;19976;-66
2021/09/12 04:59:41;;;;;;;;;;;23.80;59.90;;;;;;4989984;28;19932;-66
2021/09/12 05:02:08;;;;;;;;;;;23.80;59.80;;;;;;4991099;28;19934;-66
2021/09/12 05:04:35;;;;;;;;;;;23.70;59.80;;;;;;4990066;28;19968;-67
2021/09/12 05:07:02;;;;;;;;;;;23.80;59.80;;;;;;4990690;28;19971;-67
2021/09/12 05:09:29;;;;;;;;;;;23.80;59.80;;;;;;4990761;28;19926;-67
2021/09/12 05:11:56;;;;;;;;;;;23.80;59.80;;;;;;4972526;28;19929;-66
2021/09/12 05:14:25;;;;;;;;;;;23.80;59.80;;;;;;4991023;28;19972;-67
2021/09/12 05:16:52;;;;;;;;;;;23.80;59.80;;;;;;4990736;28;19926;-66
2021/09/12 05:19:18;;;;;;;;;;;23.80;59.80;;;;;;4989597;28;20384;-66
2021/09/12 05:21:45;;;;;;;;;;;23.80;59.80;;;;;;4989960;28;20036;-66
2021/09/12 05:24:12;;;;;;;;;;;23.80;59.70;;;;;;4989776;28;19992;-66
2021/09/12 05:26:39;;;;;;;;;;;23.80;59.70;;;;;;4990578;28;19971;-66
2021/09/12 05:29:06;;;;;;;;;;;23.90;60.30;;;;;;4990972;28;19979;-66
2021/09/12 05:31:33;;;;;;;;;;;23.90;59.70;;;;;;4973942;28;20317;-66
2021/09/12 05:34:00;;;;;;;;;;;23.90;59.70;;;;;;4972308;28;20405;-68
2021/09/12 05:36:27;;;;;;;;;;;23.90;59.60;;;;;;4989934;28;19934;-66
2021/09/12 05:38:54;;;;;;;;;;;23.90;59.60;;;;;;4990575;28;20534;-66
2021/09/12 05:41:21;;;;;;;;;;;23.90;59.60;;;;;;4989490;28;20324;-67
2021/09/12 05:43:48;;;;;;;;;;;23.90;59.60;;;;;;4989395;28;20012;-66
2021/09/12 05:46:15;;;;;;;;;;;23.90;59.50;;;;;;4989561;28;19992;-66
2021/09/12 05:48:42;;;;;;;;;;;23.90;59.50;;;;;;4989032;28;20005;-66
2021/09/12 05:51:09;;;;;;;;;;;23.90;59.40;;;;;;4990332;28;19977;-66
2021/09/12 05:53:36;;;;;;;;;;;23.90;59.40;;;;;;5007282;28;19964;-66
2021/09/12 05:56:03;;;;;;;;;;;23.90;59.40;;;;;;4989242;28;19961;-66
2021/09/12 05:58:30;;;;;;;;;;;23.90;59.40;;;;;;4988999;28;20012;-66
2021/09/12 06:00:57;;;;;;;;;;;24.00;59.40;;;;;;4989424;28;19995;-66
2021/09/12 06:03:24;;;;;;;;;;;24.00;59.40;;;;;;4988898;28;20384;-67
2021/09/12 06:05:52;;;;;;;;;;;24.00;59.40;;;;;;4989512;28;19932;-68
2021/09/12 06:08:19;;;;;;;;;;;24.00;59.40;;;;;;4990424;28;19930;-66
2021/09/12 06:10:46;;;;;;;;;;;24.00;59.30;;;;;;4972747;28;19925;-67
2021/09/12 06:13:13;;;;;;;;;;;24.00;59.30;;;;;;4990272;28;19926;-66
2021/09/12 06:15:40;;;;;;;;;;;24.00;59.20;;;;;;4990354;28;19973;-66
2021/09/12 06:18:07;;;;;;;;;;;24.10;59.30;;;;;;4988732;28;19926;-66
2021/09/12 06:20:34;;;;;;;;;;;24.10;59.30;;;;;;4990244;28;20281;-66
2021/09/12 06:23:01;;;;;;;;;;;24.10;59.20;;;;;;4973129;28;20013;-66
2021/09/12 06:25:28;;;;;;;;;;;24.10;59.20;;;;;;4975445;28;20017;-67
2021/09/12 06:27:55;;;;;;;;;;;24.10;59.10;;;;;;4989768;28;20025;-66
2021/09/12 06:30:22;;;;;;;;;;;24.10;59.10;;;;;;4989966;28;19975;-67
2021/09/12 06:32:49;;;;;;;;;;;24.10;59.10;;;;;;4990313;28;19929;-67
2021/09/12 06:35:17;;;;;;;;;;;24.10;59.00;;;;;;4990048;28;20243;-67
2021/09/12 06:37:43;;;;;;;;;;;24.20;59.00;;;;;;4989926;28;20013;-66
2021/09/12 06:40:12;;;;;;;;;;;24.10;58.90;;;;;;4989749;28;19969;-67
2021/09/12 06:42:39;;;;;;;;;;;24.20;58.90;;;;;;4989481;28;19941;-67
2021/09/12 06:45:06;;;;;;;;;;;24.20;58.90;;;;;;4991630;28;20393;-66
2021/09/12 06:47:33;;;;;;;;;;;24.20;58.80;;;;;;4992171;28;19926;-66
2021/09/12 06:50:00;;;;;;;;;;;24.30;58.90;;;;;;4992098;28;19988;-68
2021/09/12 06:52:27;;;;;;;;;;;24.30;58.90;;;;;;5036684;28;19967;-67
2021/09/12 06:54:56;;;;;;;;;;;24.30;58.80;;;;;;5030594;28;19972;-67
2021/09/12 06:57:23;;;;;;;;;;;24.30;58.80;;;;;;4991543;28;19948;-66
2021/09/12 06:59:50;;;;;;;;;;;24.30;58.80;;;;;;4991985;28;19965;-66
2021/09/12 07:02:17;;;;;;;;;;;24.30;58.80;;;;;;4992579;28;20016;-67
2021/09/12 07:04:44;;;;;;;;;;;24.30;58.80;;;;;;4992931;28;19975;-66
2021/09/12 07:07:11;;;;;;;;;;;24.30;58.80;;;;;;4992581;28;19965;-67
2021/09/12 07:09:38;;;;;;;;;;;24.30;58.80;;;;;;4992605;28;19998;-67
2021/09/12 07:12:06;;;;;;;;;;;24.30;58.80;;;;;;4993010;28;19926;-67
2021/09/12 07:14:42;;;;;;;;;;;24.30;58.70;;;;;;4992904;28;19940;-67
2021/09/12 07:17:09;;;;;;;;;;;24.30;58.70;;;;;;4991272;28;20016;-67
2021/09/12 07:19:36;;;;;;;;;;;24.30;58.70;;;;;;4991427;28;19949;-67
2021/09/12 07:22:03;;;;;;;;;;;24.30;58.70;;;;;;4992555;28;20373;-66
2021/09/12 07:24:30;;;;;;;;;;;24.40;58.80;;;;;;4975825;28;20360;-66
2021/09/12 07:26:57;;;;;;;;;;;24.30;58.70;;;;;;4992269;28;20370;-67
2021/09/12 07:29:24;;;;;;;;;;;24.40;58.70;;;;;;4992403;28;19926;-67
2021/09/12 07:31:52;;;;;;;;;;;24.40;58.70;;;;;;4992385;28;19968;-66
2021/09/12 07:34:19;;;;;;;;;;;24.40;58.70;;;;;;4992370;28;19937;-67
2021/09/12 07:36:46;;;;;;;;;;;24.40;58.60;;;;;;4991457;28;19971;-66
2021/09/12 07:39:13;;;;;;;;;;;24.40;58.60;;;;;;4992251;28;19925;-67
2021/09/12 07:41:40;;;;;;;;;;;24.40;58.50;;;;;;4992577;28;19926;-67
2021/09/12 07:44:07;;;;;;;;;;;24.40;58.50;;;;;;4991986;28;20008;-67
2021/09/12 07:46:34;;;;;;;;;;;24.50;58.50;;;;;;4992450;28;19926;-66
2021/09/12 07:49:01;;;;;;;;;;;24.50;58.50;;;;;;4990973;28;20021;-67
2021/09/12 07:51:28;;;;;;;;;;;24.50;58.40;;;;;;4994300;28;19940;-67
2021/09/12 07:53:55;;;;;;;;;;;24.50;58.40;;;;;;5031328;28;19926;-66
2021/09/12 07:56:22;;;;;;;;;;;24.50;58.40;;;;;;4989532;28;19961;-67
2021/09/12 07:58:49;;;;;;;;;;;24.50;58.40;;;;;;4991804;28;20008;-66
2021/09/12 08:01:16;;;;;;;;;;;24.50;58.50;;;;;;4991865;28;20427;-66
2021/09/12 08:03:43;;;;;;;;;;;24.50;58.40;;;;;;4992134;28;19932;-66
2021/09/12 08:06:10;;;;;;;;;;;24.50;58.50;;;;;;4990728;28;20001;-66
2021/09/12 08:08:37;;;;;;;;;;;24.50;58.40;;;;;;4992010;28;19979;-66
2021/09/12 08:11:04;;;;;;;;;;;24.50;58.40;;;;;;4990610;28;19973;-67
2021/09/12 08:13:31;;;;;;;;;;;24.50;58.40;;;;;;4990867;28;20356;-67
2021/09/12 08:15:58;;;;;;;;;;;24.50;58.50;;;;;;4991978;28;19933;-66
2021/09/12 08:18:25;;;;;;;;;;;24.50;58.50;;;;;;4991464;28;20337;-66
2021/09/12 08:20:52;;;;;;;;;;;24.50;58.50;;;;;;4991503;28;19933;-66
2021/09/12 08:23:19;;;;;;;;;;;24.50;58.50;;;;;;4991775;28;20286;-67
2021/09/12 08:25:46;;;;;;;;;;;24.50;58.50;;;;;;4991863;28;20009;-67
2021/09/12 08:28:13;;;;;;;;;;;24.50;58.50;;;;;;4990484;28;19929;-66
2021/09/12 08:30:40;;;;;;;;;;;24.50;58.50;;;;;;4991450;28;20416;-67
2021/09/12 08:33:11;;;;;;;;;;;24.50;58.50;;;;;;4974215;28;19958;-67
2021/09/12 08:35:38;;;;;;;;;;;24.50;58.40;;;;;;4990463;28;19926;-67
2021/09/12 08:38:05;;;;;;;;;;;24.60;58.50;;;;;;4990388;28;20282;-66
2021/09/12 08:40:33;;;;;;;;;;;24.60;58.50;;;;;;4991242;28;19926;-67
2021/09/12 08:43:00;;;;;;;;;;;24.60;58.50;;;;;;4991069;28;19973;-66
2021/09/12 08:45:27;;;;;;;;;;;24.60;58.40;;;;;;4991388;28;19937;-66
2021/09/12 08:47:55;;;;;;;;;;;24.60;58.30;;;;;;4972929;28;20016;-67
2021/09/12 08:50:22;;;;;;;;;;;24.60;58.30;;;;;;4989997;28;20441;-68
2021/09/12 08:52:49;;;;;;;;;;;24.60;58.20;;;;;;4993921;28;19930;-66
2021/09/12 08:55:16;;;;;;;;;;;24.60;58.20;;;;;;4990896;28;19925;-67
2021/09/12 08:57:46;;;;;;;;;;;24.70;58.20;;;;;;4990012;28;20285;-66
2021/09/12 09:00:14;;;;;;;;;;;24.70;58.20;;;;;;4990869;28;20373;-66
2021/09/12 09:02:41;;;;;;;;;;;24.70;58.20;;;;;;4991271;28;19925;-67
2021/09/12 09:05:08;;;;;;;;;;;24.70;58.20;;;;;;4990726;28;20377;-66
2021/09/12 09:07:35;;;;;;;;;;;24.70;58.10;;;;;;4990515;28;19926;-67
2021/09/12 09:10:03;;;;;;;;;;;24.70;58.10;;;;;;4990050;28;19927;-67
2021/09/12 09:12:35;;;;;;;;;;;24.70;58.20;;;;;;4990768;28;19938;-66
2021/09/12 09:15:07;;;;;;;;;;;24.70;58.20;;;;;;5000065;28;19933;-67
2021/09/12 09:17:44;;;;;;;;;;;24.70;58.20;;;;;;4990723;28;19930;-66
2021/09/12 09:20:17;;;;;;;;;;;24.70;58.20;;;;;;4990953;28;19987;-67
2021/09/12 09:22:47;;;;;;;;;;;24.70;58.20;;;;;;4989563;28;19926;-67
2021/09/12 09:25:15;;;;;;;;;;;24.70;58.20;;;;;;4989909;28;19936;-67
2021/09/12 09:27:50;;;;;;;;;;;24.70;58.20;;;;;;4972771;28;19972;-67
2021/09/12 09:30:17;;;;;;;;;;;24.70;58.20;;;;;;4973785;28;20429;-67
2021/09/12 09:32:44;;;;;;;;;;;24.70;58.20;;;;;;4990581;28;19979;-67
2021/09/12 09:35:24;;;;;;;;;;;24.80;58.20;;;;;;4974065;28;19930;-67
2021/09/12 09:37:52;;;;;;;;;;;24.80;58.20;;;;;;4990067;28;19926;-66
2021/09/12 09:40:20;;;;;;;;;;;24.80;58.20;;;;;;4990471;28;19934;-66
2021/09/12 09:42:47;;;;;;;;;;;24.80;58.20;;;;;;4990840;28;20016;-67
2021/09/12 09:45:18;;;;;;;;;;;24.80;58.20;;;;;;4989548;28;19926;-66
2021/09/12 09:47:49;;;;;;;;;;;24.80;58.20;;;;;;4990387;28;19925;-66
2021/09/12 09:50:18;;;;;;;;;;;24.80;58.10;;;;;;4972359;28;19926;-67
2021/09/12 09:52:54;;;;;;;;;;;24.80;58.10;;;;;;5047330;28;20007;-67
2021/09/12 09:55:22;;;;;;;;;;;24.80;58.10;;;;;;4995490;28;19987;-66
2021/09/12 09:57:53;;;;;;;;;;;24.80;58.20;;;;;;4989297;28;19934;-66
2021/09/12 10:00:21;;;;;;;;;;;24.80;58.20;;;;;;4989434;28;20429;-67
2021/09/12 10:02:48;;;;;;;;;;;24.80;58.10;;;;;;4989423;28;19969;-67
2021/09/12 10:05:17;;;;;;;;;;;24.80;58.10;;;;;;4989828;28;19932;-67
2021/09/12 10:07:44;;;;;;;;;;;24.80;58.10;;;;;;4990082;28;20420;-66
2021/09/12 10:10:11;;;;;;;;;;;24.80;58.10;;;;;;4990304;28;19930;-67
2021/09/12 10:12:43;;;;;;;;;;;24.80;58.10;;;;;;4988841;28;20378;-66
2021/09/12 10:15:12;;;;;;;;;;;24.80;58.10;;;;;;4989288;28;19926;-66
2021/09/12 10:17:42;;;;;;;;;;;24.80;58.10;;;;;;4989886;28;20349;-67
2021/09/12 10:20:13;;;;;;;;;;;24.80;58.10;;;;;;4991325;28;20001;-67
2021/09/12 10:22:58;;;;;;;;;;;24.80;58.20;;;;;;4993401;28;19977;-66
2021/09/12 10:25:26;;;;;;;;;;;24.80;58.20;;;;;;4992019;28;20385;-66
2021/09/12 10:28:03;;;;;;;;;;;24.80;58.20;;;;;;4975904;28;19925;-67
2021/09/12 10:30:38;;;;;;;;;;;24.80;58.10;;;;;;4993445;28;19926;-67
2021/09/12 10:33:06;;;;;;;;;;;24.80;58.10;;;;;;4993531;28;20337;-66
2021/09/12 10:35:48;;;;;;;;;;;24.80;58.10;;;;;;4993312;28;19979;-67
2021/09/12 10:38:26;;;;;;;;;;;24.80;58.10;;;;;;4992354;28;19972;-66
2021/09/12 10:40:53;;;;;;;;;;;24.90;58.10;;;;;;4992216;28;19926;-66
2021/09/12 10:43:23;;;;;;;;;;;24.80;58.00;;;;;;4992201;28;19926;-66
2021/09/12 10:45:56;;;;;;;;;;;24.90;58.10;;;;;;4992944;28;20385;-66
2021/09/12 10:48:24;;;;;;;;;;;24.90;58.00;;;;;;4978954;28;19926;-67
2021/09/12 10:50:51;;;;;;;;;;;24.90;58.10;;;;;;4992978;28;19955;-67
2021/09/12 10:53:45;;;;;;;;;;;24.90;58.00;;;;;;5022616;28;19930;-67
2021/09/12 10:56:11;;;;;;;;;;;24.90;58.00;;;;;;4986013;28;19926;-66
2021/09/12 10:58:39;;;;;;;;;;;24.90;58.10;;;;;;4992968;28;19979;-68
2021/09/12 11:01:07;;;;;;;;;;;24.80;58.10;;;;;;4992950;28;19926;-66
2021/09/12 11:03:34;;;;;;;;;;;24.80;58.20;;;;;;4991560;28;19932;-66
2021/09/12 11:06:02;;;;;;;;;;;24.80;58.20;;;;;;4992485;28;20393;-66
2021/09/12 11:08:35;;;;;;;;;;;24.70;58.20;;;;;;4991837;28;19987;-67
2021/09/12 11:11:03;;;;;;;;;;;24.70;58.30;;;;;;4992900;28;20343;-67
2021/09/12 11:13:30;;;;;;;;;;;24.70;58.40;;;;;;4991640;28;20012;-66
2021/09/12 11:16:07;;;;;;;;;;;24.70;58.50;;;;;;4991844;28;19961;-67
2021/09/12 11:18:46;;;;;;;;;;;24.60;58.50;;;;;;4992450;28;19953;-67
2021/09/12 11:21:28;;;;;;;;;;;24.60;58.60;;;;;;4992607;28;19925;-67
2021/09/12 11:23:56;;;;;;;;;;;24.60;58.60;;;;;;4992566;28;19925;-68
2021/09/12 11:26:23;;;;;;;;;;;24.60;58.70;;;;;;4991377;28;19957;-66
2021/09/12 11:29:00;;;;;;;;;;;24.60;58.80;;;;;;4991830;28;19962;-68
2021/09/12 11:31:28;;;;;;;;;;;24.60;58.80;;;;;;4991020;28;19926;-67
2021/09/12 11:33:55;;;;;;;;;;;24.50;58.80;;;;;;4975396;28;19933;-67
2021/09/12 11:36:23;;;;;;;;;;;24.50;58.80;;;;;;4991433;28;20349;-66
2021/09/12 11:38:58;;;;;;;;;;;24.50;58.90;;;;;;4991070;28;19964;-66
2021/09/12 11:41:26;;;;;;;;;;;24.50;58.90;;;;;;4991451;28;19965;-67
2021/09/12 11:43:53;;;;;;;;;;;24.50;58.90;;;;;;4992261;28;19977;-68
2021/09/12 11:46:20;;;;;;;;;;;24.50;58.90;;;;;;4992544;28;19930;-66
2021/09/12 11:48:57;;;;;;;;;;;24.50;59.00;;;;;;4992036;28;20304;-67
2021/09/12 11:51:31;;;;;;;;;;;24.50;59.00;;;;;;4992389;28;20274;-67
2021/09/12 11:54:04;;;;;;;;;;;24.50;59.00;;;;;;4990982;28;19975;-67
2021/09/12 11:56:31;;;;;;;;;;;24.50;59.00;;;;;;4991701;28;20347;-66
2021/09/12 11:58:59;;;;;;;;;;;24.50;59.10;;;;;;4992301;28;20322;-66
2021/09/12 12:01:26;;;;;;;;;;;24.50;59.00;;;;;;4991478;28;19926;-66
2021/09/12 12:03:54;;;;;;;;;;;24.50;59.10;;;;;;4991945;28;19972;-66
2021/09/12 12:06:22;;;;;;;;;;;24.50;59.00;;;;;;4991857;28;19948;-66
2021/09/12 12:09:31;;;;;;;;;;;24.50;59.00;;;;;;4990995;28;19987;-66
2021/09/12 12:12:06;;;;;;;;;;;24.50;59.10;;;;;;4930922;28;19967;-67
2021/09/12 12:14:42;;;;;;;;;;;24.50;59.10;;;;;;4915884;29;19927;-67
2021/09/12 12:17:12;;;;;;;;;;;24.50;59.10;;;;;;4916493;28;19972;-66
2021/09/12 12:19:39;;;;;;;;;;;24.50;59.10;;;;;;4915799;28;19931;-66
2021/09/12 12:22:07;;;;;;;;;;;24.40;59.10;;;;;;4931748;28;20465;-66
2021/09/12 12:24:36;;;;;;;;;;;24.40;59.70;;;;;;4931699;28;19949;-66
2021/09/12 12:27:10;;;;;;;;;;;24.40;59.70;;;;;;4930748;29;19927;-66
2021/09/12 12:29:40;;;;;;;;;;;24.40;59.10;;;;;;4930704;29;19933;-66
2021/09/12 12:32:08;;;;;;;;;;;24.40;59.20;;;;;;4911070;28;19989;-66
2021/09/12 12:34:38;;;;;;;;;;;24.40;59.20;;;;;;4916101;28;19970;-67
2021/09/12 12:37:06;;;;;;;;;;;24.40;59.20;;;;;;4930878;28;20025;-66
2021/09/12 12:39:33;;;;;;;;;;;24.40;59.80;;;;;;4917734;29;19931;-67
2021/09/12 12:42:00;;;;;;;;;;;24.40;59.30;;;;;;4917373;28;19963;-68
2021/09/12 12:44:27;;;;;;;;;;;24.40;59.20;;;;;;4916744;29;19927;-66
2021/09/12 12:46:56;;;;;;;;;;;24.40;59.20;;;;;;4943693;28;19992;-66
2021/09/12 12:49:24;;;;;;;;;;;24.40;59.20;;;;;;4991268;28;20381;-66
2021/09/12 12:52:09;;;;;;;;;;;24.40;59.20;;;;;;5010191;28;19924;-66
2021/09/12 12:54:38;;;;;;;;;;;24.40;59.20;;;;;;5014139;28;19926;-67
2021/09/12 12:57:15;;;;;;;;;;;24.40;59.30;;;;;;4990046;28;19926;-68
2021/09/12 12:59:46;;;;;;;;;;;24.40;59.30;;;;;;4990971;28;19926;-67
2021/09/12 13:02:13;;;;;;;;;;;24.40;59.30;;;;;;4989818;28;19930;-67
2021/09/12 13:04:40;;;;;;;;;;;24.40;59.30;;;;;;4990802;28;20381;-67
2021/09/12 13:07:08;;;;;;;;;;;24.40;59.30;;;;;;4972499;28;20016;-66
2021/09/12 13:09:35;;;;;;;;;;;24.40;59.30;;;;;;4991134;28;19980;-66
2021/09/12 13:12:07;;;;;;;;;;;24.40;59.30;;;;;;4991317;28;19991;-66
2021/09/12 13:14:34;;;;;;;;;;;24.40;59.30;;;;;;4991144;28;19926;-66
2021/09/12 13:17:02;;;;;;;;;;;24.40;59.30;;;;;;4991000;28;19926;-66
2021/09/12 13:19:29;;;;;;;;;;;24.40;59.30;;;;;;4990965;28;19978;-66
2021/09/12 13:21:56;;;;;;;;;;;24.40;59.30;;;;;;4989814;28;19961;-66
2021/09/12 13:24:23;;;;;;;;;;;24.40;59.40;;;;;;4990610;28;19979;-66
2021/09/12 13:26:50;;;;;;;;;;;24.40;59.30;;;;;;4989702;28;20021;-67
2021/09/12 13:29:17;;;;;;;;;;;24.40;59.40;;;;;;4989726;28;19976;-66
2021/09/12 13:31:44;;;;;;;;;;;24.40;59.40;;;;;;4990465;28;20467;-66
2021/09/12 13:34:11;;;;;;;;;;;24.40;59.40;;;;;;4989538;28;19933;-68
2021/09/12 13:36:38;;;;;;;;;;;24.40;59.40;;;;;;4990455;28;19926;-66
2021/09/12 13:39:06;;;;;;;;;;;24.40;59.40;;;;;;4990051;28;19940;-67
2021/09/12 13:41:33;;;;;;;;;;;24.40;59.40;;;;;;4990863;28;20331;-67
2021/09/12 13:44:00;;;;;;;;;;;24.40;59.40;;;;;;4990516;28;19968;-66
2021/09/12 13:46:32;;;;;;;;;;;24.40;59.40;;;;;;4989763;28;19969;-66
2021/09/12 13:49:00;;;;;;;;;;;24.40;59.40;;;;;;4989731;28;19933;-66
2021/09/12 13:51:27;;;;;;;;;;;24.40;59.40;;;;;;4992904;28;20295;-66
2021/09/12 13:53:54;;;;;;;;;;;24.40;59.40;;;;;;5002714;28;19930;-66
2021/09/12 13:56:21;;;;;;;;;;;24.40;59.40;;;;;;4993256;28;20346;-66
2021/09/12 13:58:48;;;;;;;;;;;24.40;59.30;;;;;;4993959;28;19995;-66
2021/09/12 14:01:15;;;;;;;;;;;24.40;59.30;;;;;;4994026;28;19973;-66
2021/09/12 14:03:43;;;;;;;;;;;24.40;59.40;;;;;;4992580;28;19925;-66
2021/09/12 14:06:10;;;;;;;;;;;24.40;59.50;;;;;;4993561;28;19930;-66
2021/09/12 14:08:37;;;;;;;;;;;24.40;59.50;;;;;;4992803;28;19972;-66
2021/09/12 14:11:04;;;;;;;;;;;24.40;59.50;;;;;;4993550;28;20004;-66
2021/09/12 14:13:31;;;;;;;;;;;24.40;59.50;;;;;;4993533;28;19987;-66
2021/09/12 14:15:58;;;;;;;;;;;24.40;59.50;;;;;;4993587;28;19975;-66
2021/09/12 14:18:25;;;;;;;;;;;24.40;59.50;;;;;;4992268;28;19949;-67
2021/09/12 14:20:52;;;;;;;;;;;24.40;59.50;;;;;;4992261;28;20385;-66
2021/09/12 14:23:19;;;;;;;;;;;24.40;59.50;;;;;;4992534;28;19979;-67